Time;durP1;ratioP1;P1;durP2;ratioP2;P2;SDS_P1;SDS_P2;PMS_P1;PMS_P2;Temp;Humidity;BMP_temperature;BMP_pressure;BME280_temperature;BME280_humidity;BME280_pressure;Samples;Min_cycle;Max_cycle;Signal;HPM_P1;HPM_P2
2021/06/21 00:00:46;;;;;;;7.07;1.60;;;17.00;99.90;;;;;;4999127;28;20474;-91
2021/06/21 00:03:13;;;;;;;6.57;1.90;;;17.00;99.90;;;;;;4996891;28;20195;-90
2021/06/21 00:05:39;;;;;;;3.33;1.70;;;16.90;99.90;;;;;;4996289;28;20458;-90
2021/06/21 00:08:05;;;;;;;4.53;1.90;;;16.90;99.90;;;;;;5015020;28;20483;-90
2021/06/21 00:10:31;;;;;;;4.23;2.10;;;17.00;99.90;;;;;;4997815;28;20177;-89
2021/06/21 00:12:59;;;;;;;5.47;1.83;;;17.00;99.90;;;;;;4999227;28;20586;-89
2021/06/21 00:15:29;;;;;;;4.17;1.43;;;17.00;99.90;;;;;;4998569;28;20394;-89
2021/06/21 00:17:56;;;;;;;3.07;1.73;;;17.00;99.90;;;;;;4998315;28;20459;-89
2021/06/21 00:20:23;;;;;;;3.80;1.63;;;17.00;99.90;;;;;;4997863;28;20443;-89
2021/06/21 00:22:50;;;;;;;4.67;1.90;;;17.00;99.90;;;;;;4996250;28;20506;-89
2021/06/21 00:25:17;;;;;;;5.97;2.07;;;17.00;99.90;;;;;;4995434;28;20428;-89
2021/06/21 00:27:42;;;;;;;4.90;1.97;;;17.00;99.90;;;;;;4998293;28;20507;-89
2021/06/21 00:30:13;;;;;;;4.40;2.10;;;17.10;99.90;;;;;;5012831;28;20530;-89
2021/06/21 00:32:40;;;;;;;5.73;1.90;;;17.10;99.90;;;;;;5012653;28;20698;-89
2021/06/21 00:35:07;;;;;;;4.83;1.87;;;17.10;99.90;;;;;;4995513;28;20440;-89
2021/06/21 00:37:33;;;;;;;5.47;1.57;;;17.00;99.90;;;;;;4995016;28;20448;-89
2021/06/21 00:39:59;;;;;;;6.07;2.17;;;16.90;99.90;;;;;;5010883;28;20460;-88
2021/06/21 00:42:25;;;;;;;3.60;2.10;;;16.90;99.90;;;;;;5011251;28;20454;-89
2021/06/21 00:44:51;;;;;;;3.63;1.53;;;17.00;99.90;;;;;;5011173;28;20460;-89
2021/06/21 00:47:18;;;;;;;4.73;1.57;;;17.00;99.90;;;;;;4995474;28;20262;-88
2021/06/21 00:49:44;;;;;;;3.37;1.60;;;16.90;99.90;;;;;;4995085;28;20633;-89
2021/06/21 00:52:15;;;;;;;6.33;2.30;;;16.90;99.90;;;;;;4996038;28;20444;-89
2021/06/21 00:54:41;;;;;;;5.83;1.60;;;17.00;99.90;;;;;;4996093;28;20432;-89
2021/06/21 00:57:07;;;;;;;6.10;2.23;;;17.00;99.90;;;;;;5010079;28;20467;-89
2021/06/21 00:59:33;;;;;;;4.17;1.63;;;17.00;99.90;;;;;;5013263;28;20436;-88
2021/06/21 01:01:59;;;;;;;8.00;2.20;;;16.90;99.90;;;;;;5007998;28;20495;-88
2021/06/21 01:04:25;;;;;;;4.53;1.90;;;16.90;99.90;;;;;;4992981;28;20444;-89
2021/06/21 01:06:51;;;;;;;6.03;1.70;;;16.90;99.90;;;;;;5007958;28;20484;-88
2021/06/21 01:09:17;;;;;;;4.33;1.77;;;17.00;99.90;;;;;;5012797;28;20181;-88
2021/06/21 01:12:02;;;;;;;4.10;1.97;;;17.10;99.90;;;;;;5011246;28;20530;-88
2021/06/21 01:14:35;;;;;;;5.30;2.33;;;17.00;99.90;;;;;;4991455;28;20444;-89
2021/06/21 01:17:10;;;;;;;3.20;1.73;;;17.00;99.90;;;;;;4992925;28;20448;-89
2021/06/21 01:19:51;;;;;;;4.50;1.93;;;17.00;99.90;;;;;;5009235;28;20789;-89
2021/06/21 01:22:31;;;;;;;2.70;1.60;;;17.00;99.90;;;;;;5005699;28;20530;-88
2021/06/21 01:25:08;;;;;;;5.63;2.87;;;17.00;99.90;;;;;;5009307;28;20447;-88
2021/06/21 01:27:43;;;;;;;7.97;2.47;;;17.00;99.90;;;;;;4993308;28;20507;-89
2021/06/21 01:30:15;;;;;;;9.10;2.00;;;17.00;99.90;;;;;;4991235;28;20471;-88
2021/06/21 01:32:59;;;;;;;6.23;1.37;;;17.00;99.90;;;;;;4990096;28;20750;-89
2021/06/21 01:35:38;;;;;;;7.40;2.27;;;17.10;99.90;;;;;;4992061;28;20976;-88
2021/06/21 01:38:16;;;;;;;2.73;1.80;;;17.10;99.90;;;;;;4994399;28;21932;-88
2021/06/21 01:40:46;;;;;;;8.77;2.20;;;17.10;99.90;;;;;;4995271;28;21025;-88
2021/06/21 01:43:16;;;;;;;5.23;2.00;;;17.00;99.90;;;;;;4993491;28;20504;-88
2021/06/21 01:45:45;;;;;;;4.63;1.70;;;17.00;99.90;;;;;;4994626;28;20436;-88
2021/06/21 01:48:12;;;;;;;3.23;1.77;;;17.00;99.90;;;;;;5009884;28;20877;-89
2021/06/21 01:50:38;;;;;;;3.70;1.77;;;17.10;99.90;;;;;;4992437;28;20526;-89
2021/06/21 01:53:14;;;;;;;7.00;2.10;;;17.20;99.90;;;;;;4993921;28;20468;-89
2021/06/21 01:55:48;;;;;;;6.63;1.93;;;17.20;99.90;;;;;;4989635;28;20444;-89
2021/06/21 01:58:17;;;;;;;3.97;1.93;;;17.10;99.90;;;;;;4998087;28;20539;-89
2021/06/21 02:00:46;;;;;;;15.83;2.47;;;17.20;99.90;;;;;;4992317;28;20451;-89
2021/06/21 02:03:12;;;;;;;9.63;2.27;;;17.20;99.90;;;;;;4997654;28;20946;-88
2021/06/21 02:05:41;;;;;;;8.63;1.83;;;17.10;99.90;;;;;;4994813;28;20456;-88
2021/06/21 02:08:15;;;;;;;6.57;2.57;;;17.10;99.90;;;;;;4992628;28;20452;-88
2021/06/21 02:10:40;;;;;;;7.80;2.30;;;17.10;99.90;;;;;;4996131;28;20436;-88
2021/06/21 02:13:07;;;;;;;10.13;2.60;;;17.20;99.90;;;;;;5009685;28;21408;-88
2021/06/21 02:15:33;;;;;;;5.20;1.70;;;17.10;99.90;;;;;;5010813;28;20495;-88
2021/06/21 02:18:00;;;;;;;8.20;2.23;;;17.10;99.90;;;;;;4993143;28;20464;-89
2021/06/21 02:20:35;;;;;;;9.10;2.30;;;17.10;99.90;;;;;;4995259;28;20431;-88
2021/06/21 02:23:02;;;;;;;8.30;2.00;;;17.10;99.90;;;;;;4991338;28;20454;-88
2021/06/21 02:25:30;;;;;;;6.50;2.30;;;17.00;99.90;;;;;;5010942;28;20451;-88
2021/06/21 02:27:57;;;;;;;4.07;2.07;;;17.00;99.90;;;;;;4993617;28;20455;-88
2021/06/21 02:30:26;;;;;;;10.47;2.37;;;16.90;99.90;;;;;;5009186;28;20443;-88
2021/06/21 02:32:51;;;;;;;8.90;2.80;;;16.90;99.90;;;;;;4989893;28;20456;-87
2021/06/21 02:35:17;;;;;;;7.10;2.30;;;16.80;99.90;;;;;;4999507;28;20853;-87
2021/06/21 02:37:43;;;;;;;5.60;2.33;;;16.80;99.90;;;;;;5011137;28;20188;-87
2021/06/21 02:40:15;;;;;;;6.03;2.67;;;16.70;99.90;;;;;;5010975;28;20663;-87
2021/06/21 02:42:44;;;;;;;6.40;1.87;;;16.70;99.90;;;;;;4990594;28;20428;-88
2021/06/21 02:45:13;;;;;;;7.10;2.57;;;16.60;99.90;;;;;;5012273;28;20519;-88
2021/06/21 02:47:39;;;;;;;8.30;2.13;;;16.60;99.90;;;;;;4996662;28;20578;-88
2021/06/21 02:50:06;;;;;;;6.23;2.07;;;16.60;99.90;;;;;;5009552;28;20439;-87
2021/06/21 02:52:53;;;;;;;5.50;2.33;;;16.60;99.90;;;;;;5011300;28;20567;-88
2021/06/21 02:55:25;;;;;;;5.73;1.93;;;16.70;99.90;;;;;;5009350;28;20451;-88
2021/06/21 02:58:08;;;;;;;7.03;1.90;;;16.60;99.90;;;;;;4994421;28;20933;-87
2021/06/21 03:00:37;;;;;;;4.33;2.23;;;16.60;99.90;;;;;;4986423;28;20480;-88
2021/06/21 03:03:06;;;;;;;4.87;2.60;;;16.60;99.90;;;;;;5010523;28;20452;-88
2021/06/21 03:05:32;;;;;;;4.50;2.73;;;16.60;99.90;;;;;;4993714;28;20522;-88
2021/06/21 03:08:01;;;;;;;11.50;2.80;;;16.60;99.90;;;;;;5010387;28;20455;-87
2021/06/21 03:10:27;;;;;;;7.90;2.93;;;16.60;99.90;;;;;;4994321;28;20440;-88
2021/06/21 03:12:55;;;;;;;4.77;2.43;;;16.70;99.90;;;;;;4994178;28;20826;-88
2021/06/21 03:18:02;;;;;;;5.93;2.67;;;16.70;99.90;;;;;;4995818;28;20553;-87
2021/06/21 03:20:29;;;;;;;9.40;2.87;;;16.70;99.90;;;;;;5009851;28;20830;-88
2021/06/21 03:25:35;;;;;;;13.87;3.97;;;16.70;99.90;;;;;;4993673;28;20462;-89
2021/06/21 03:28:11;;;;;;;8.37;3.70;;;16.70;99.90;;;;;;4994612;28;21238;-88
2021/06/21 03:30:44;;;;;;;7.77;3.47;;;16.70;99.90;;;;;;4994061;28;21054;-88
2021/06/21 03:33:18;;;;;;;8.30;2.87;;;16.70;99.90;;;;;;4996880;28;20448;-88
2021/06/21 03:35:44;;;;;;;5.30;3.20;;;16.70;99.90;;;;;;4990634;28;20518;-88
2021/06/21 03:38:14;;;;;;;10.63;3.70;;;16.70;99.90;;;;;;5011511;28;20444;-88
2021/06/21 03:40:45;;;;;;;9.20;3.97;;;16.80;99.90;;;;;;4992740;28;20487;-88
2021/06/21 03:43:21;;;;;;;7.77;3.83;;;16.80;99.90;;;;;;4993262;28;20468;-88
2021/06/21 03:45:51;;;;;;;8.30;3.80;;;16.80;99.90;;;;;;4993248;28;20447;-88
2021/06/21 03:48:17;;;;;;;6.43;3.70;;;16.80;99.90;;;;;;5012738;28;20817;-88
2021/06/21 03:50:43;;;;;;;11.40;3.90;;;16.90;99.90;;;;;;4994669;28;20594;-89
2021/06/21 03:53:10;;;;;;;9.50;4.00;;;16.90;99.90;;;;;;5014340;28;20448;-88
2021/06/21 03:55:36;;;;;;;7.33;3.57;;;16.90;99.90;;;;;;4998446;28;20483;-88
2021/06/21 03:58:01;;;;;;;6.10;3.00;;;17.00;99.90;;;;;;4998742;28;20491;-88
2021/06/21 04:00:30;;;;;;;6.43;2.83;;;17.10;99.90;;;;;;5015325;28;20188;-88
2021/06/21 04:02:59;;;;;;;6.33;2.77;;;17.10;99.90;;;;;;4996225;28;20201;-88
2021/06/21 04:05:26;;;;;;;4.90;2.93;;;17.10;99.90;;;;;;4994578;28;20945;-87
2021/06/21 04:07:53;;;;;;;8.30;2.97;;;17.10;99.90;;;;;;5010359;28;20483;-87
2021/06/21 04:10:26;;;;;;;6.57;2.80;;;17.10;99.90;;;;;;5009295;28;20518;-88
2021/06/21 04:12:54;;;;;;;9.57;2.80;;;17.20;99.90;;;;;;4993026;28;21084;-87
2021/06/21 04:15:28;;;;;;;4.00;2.47;;;17.20;99.90;;;;;;5010233;28;21025;-88
2021/06/21 04:17:57;;;;;;;8.83;2.37;;;17.30;99.90;;;;;;4992475;28;20455;-88
2021/06/21 04:20:33;;;;;;;7.20;2.20;;;17.30;99.90;;;;;;5008050;28;20822;-87
2021/06/21 04:23:00;;;;;;;6.67;2.00;;;17.40;99.90;;;;;;4995138;28;20485;-87
2021/06/21 04:25:26;;;;;;;8.17;2.73;;;17.40;99.90;;;;;;5007060;28;20797;-88
2021/06/21 04:27:52;;;;;;;5.47;2.30;;;17.40;99.90;;;;;;4993637;28;20487;-88
2021/06/21 04:30:23;;;;;;;5.17;1.83;;;17.40;99.90;;;;;;5009844;28;20437;-88
2021/06/21 04:33:00;;;;;;;5.70;3.63;;;17.40;99.90;;;;;;5009888;28;20455;-88
2021/06/21 04:35:26;;;;;;;6.40;2.30;;;17.40;99.90;;;;;;4993727;28;20443;-89
2021/06/21 04:37:55;;;;;;;2.80;2.07;;;17.30;99.90;;;;;;4994399;28;20836;-88
2021/06/21 04:40:24;;;;;;;4.73;3.10;;;17.30;99.90;;;;;;5005261;28;20469;-89
2021/06/21 04:42:50;;;;;;;6.33;2.10;;;17.40;99.90;;;;;;5007789;28;20443;-88
2021/06/21 04:45:16;;;;;;;5.43;2.63;;;17.30;99.90;;;;;;4988870;28;20463;-88
2021/06/21 04:47:42;;;;;;;3.50;2.27;;;17.40;99.90;;;;;;5004214;28;20221;-89
2021/06/21 04:50:10;;;;;;;4.03;2.77;;;17.40;99.90;;;;;;4992895;28;20435;-89
2021/06/21 04:52:38;;;;;;;7.70;2.37;;;17.50;99.90;;;;;;5010770;28;20523;-88
2021/06/21 04:55:06;;;;;;;8.80;2.37;;;17.40;99.90;;;;;;5009552;28;20436;-88
2021/06/21 04:57:33;;;;;;;5.77;2.70;;;17.50;99.90;;;;;;4997630;28;20436;-88
2021/06/21 05:00:00;;;;;;;6.87;2.03;;;17.60;99.90;;;;;;5007058;28;22060;-89
2021/06/21 05:02:26;;;;;;;7.90;2.80;;;17.60;99.90;;;;;;5009316;28;20436;-90
2021/06/21 05:04:52;;;;;;;5.93;2.10;;;17.60;99.90;;;;;;5011418;28;20456;-88
2021/06/21 05:07:18;;;;;;;5.50;2.30;;;17.70;99.90;;;;;;5010867;28;20687;-88
2021/06/21 05:09:44;;;;;;;7.97;2.27;;;17.70;99.90;;;;;;5000318;28;20193;-88
2021/06/21 05:12:12;;;;;;;7.40;2.53;;;17.80;99.90;;;;;;5014816;28;20455;-87
2021/06/21 05:14:38;;;;;;;5.07;2.60;;;17.90;99.90;;;;;;4997634;28;20276;-88
2021/06/21 05:17:07;;;;;;;7.73;2.40;;;17.80;99.90;;;;;;5000813;28;20896;-88
2021/06/21 05:19:33;;;;;;;6.33;2.40;;;17.80;99.90;;;;;;4996738;28;20193;-88
2021/06/21 05:21:59;;;;;;;3.53;2.00;;;17.80;99.90;;;;;;5013039;28;20463;-88
2021/06/21 05:24:25;;;;;;;5.13;2.30;;;17.80;99.90;;;;;;4995003;28;21025;-88
2021/06/21 05:26:51;;;;;;;4.00;2.23;;;17.90;99.90;;;;;;4991205;28;20291;-88
2021/06/21 05:29:17;;;;;;;7.07;2.70;;;18.00;99.90;;;;;;4992058;28;20195;-88
2021/06/21 05:31:42;;;;;;;8.40;2.43;;;18.10;99.90;;;;;;4967264;28;20457;-88
2021/06/21 05:34:11;;;;;;;5.83;3.17;;;18.10;99.90;;;;;;5001950;28;20185;-88
2021/06/21 05:36:39;;;;;;;3.90;2.30;;;18.20;99.90;;;;;;4992751;28;20814;-88
2021/06/21 05:39:08;;;;;;;4.80;2.33;;;18.20;99.90;;;;;;4995868;28;20200;-88
2021/06/21 05:41:34;;;;;;;5.10;2.40;;;18.20;99.90;;;;;;5013501;28;20502;-88
2021/06/21 05:43:59;;;;;;;4.73;2.40;;;18.20;99.90;;;;;;5016098;28;20480;-89
2021/06/21 05:46:25;;;;;;;4.60;2.17;;;18.20;99.90;;;;;;4993669;28;20216;-88
2021/06/21 05:48:53;;;;;;;8.10;2.47;;;18.40;99.90;;;;;;4994014;28;20549;-88
2021/06/21 05:51:19;;;;;;;7.27;2.67;;;18.60;99.90;;;;;;5000060;28;20221;-89
2021/06/21 05:53:45;;;;;;;7.67;2.70;;;18.90;99.90;;;;;;4996992;28;20491;-88
2021/06/21 05:56:14;;;;;;;5.67;1.90;;;19.00;99.90;;;;;;5014128;28;20272;-88
2021/06/21 05:58:51;;;;;;;5.63;2.63;;;19.00;99.90;;;;;;4999712;28;20494;-88
2021/06/21 06:01:16;;;;;;;7.23;2.20;;;19.00;99.90;;;;;;4994053;28;20452;-88
2021/06/21 06:03:43;;;;;;;5.57;2.43;;;18.90;99.90;;;;;;5000064;28;20942;-89
2021/06/21 06:06:09;;;;;;;3.23;1.80;;;18.90;99.90;;;;;;5013613;28;20216;-89
2021/06/21 06:08:36;;;;;;;6.83;2.10;;;19.00;99.90;;;;;;5002753;28;20505;-89
2021/06/21 06:11:06;;;;;;;6.40;2.00;;;19.00;99.90;;;;;;5015742;28;20189;-88
2021/06/21 06:13:38;;;;;;;6.40;1.80;;;19.10;99.90;;;;;;4997184;28;20554;-89
2021/06/21 06:16:07;;;;;;;4.83;1.90;;;19.00;99.90;;;;;;4998534;28;20535;-88
2021/06/21 06:18:35;;;;;;;6.70;2.07;;;19.10;99.90;;;;;;5012608;28;20452;-88
2021/06/21 06:21:01;;;;;;;5.20;2.10;;;19.20;99.90;;;;;;5013844;28;20479;-88
2021/06/21 06:23:27;;;;;;;8.20;2.70;;;19.20;99.90;;;;;;4999834;28;20470;-88
2021/06/21 06:25:53;;;;;;;4.90;2.60;;;19.20;99.90;;;;;;5012622;28;20192;-88
2021/06/21 06:28:22;;;;;;;6.87;2.50;;;19.40;99.90;;;;;;5000308;28;20201;-88
2021/06/21 06:30:49;;;;;;;9.27;2.63;;;19.50;99.90;;;;;;4985697;28;20196;-88
2021/06/21 06:33:15;;;;;;;6.60;2.70;;;19.60;99.90;;;;;;4997688;28;20467;-88
2021/06/21 06:35:41;;;;;;;7.53;2.10;;;19.70;99.90;;;;;;4997566;28;21036;-88
2021/06/21 06:38:07;;;;;;;5.40;1.50;;;19.70;99.90;;;;;;5013112;28;20192;-88
2021/06/21 06:40:33;;;;;;;8.37;1.87;;;19.80;99.90;;;;;;4981922;28;20185;-89
2021/06/21 06:43:04;;;;;;;6.17;2.00;;;19.80;99.90;;;;;;5002051;28;20459;-89
2021/06/21 06:45:32;;;;;;;5.10;2.33;;;19.80;99.90;;;;;;4980456;28;20190;-89
2021/06/21 06:47:59;;;;;;;2.93;1.80;;;19.90;99.90;;;;;;5013721;28;20510;-88
2021/06/21 06:50:25;;;;;;;8.40;2.27;;;19.90;99.90;;;;;;5013798;28;20797;-89
2021/06/21 06:52:51;;;;;;;4.17;1.97;;;19.90;99.90;;;;;;4998610;28;20447;-88
2021/06/21 06:58:01;;;;;;;6.20;2.00;;;20.00;99.90;;;;;;4999439;28;20606;-88
2021/06/21 07:00:26;;;;;;;7.27;2.30;;;20.10;99.90;;;;;;4998307;28;20487;-89
2021/06/21 07:02:52;;;;;;;8.40;2.30;;;20.20;99.90;;;;;;5013839;28;20203;-89
2021/06/21 07:05:18;;;;;;;7.97;1.80;;;20.40;99.90;;;;;;5002293;28;20181;-88
2021/06/21 07:07:43;;;;;;;3.50;1.70;;;20.70;99.90;;;;;;5000815;28;20776;-89
2021/06/21 07:10:12;;;;;;;5.37;1.50;;;20.70;99.90;;;;;;5000082;28;20185;-89
2021/06/21 07:12:38;;;;;;;4.10;2.10;;;20.90;99.90;;;;;;5017889;28;20199;-89
2021/06/21 07:15:04;;;;;;;4.57;1.50;;;21.10;99.90;;;;;;5000981;28;20665;-90
2021/06/21 07:17:30;;;;;;;5.10;1.37;;;21.20;99.90;;;;;;4999285;28;20184;-89
2021/06/21 07:19:55;;;;;;;4.87;1.90;;;21.30;99.90;;;;;;4998673;28;20448;-89
2021/06/21 07:22:21;;;;;;;3.53;1.80;;;21.30;99.90;;;;;;4999639;28;20726;-88
2021/06/21 07:27:29;;;;;;;5.67;2.10;;;21.60;99.90;;;;;;5004676;28;20216;-89
2021/06/21 07:32:25;;;;;;;6.47;2.10;;;21.70;99.90;;;;;;5003163;28;20483;-88
2021/06/21 07:34:51;;;;;;;3.47;1.53;;;21.70;99.90;;;;;;5022119;28;20471;-88
2021/06/21 07:37:19;;;;;;;4.10;1.47;;;21.70;99.90;;;;;;4999362;28;20200;-89
2021/06/21 07:39:45;;;;;;;4.13;1.53;;;21.70;99.90;;;;;;5000442;28;20208;-89
2021/06/21 07:42:13;;;;;;;4.43;1.93;;;21.80;99.90;;;;;;5000690;28;20452;-88
2021/06/21 07:44:39;;;;;;;3.70;1.67;;;22.00;99.90;;;;;;5000054;28;20270;-89
2021/06/21 07:47:06;;;;;;;2.87;1.40;;;22.10;99.90;;;;;;5003818;28;20483;-90
2021/06/21 07:49:32;;;;;;;6.97;3.20;;;22.10;99.90;;;;;;5003931;28;20567;-88
2021/06/21 07:51:58;;;;;;;4.30;3.90;;;22.10;99.90;;;;;;5009087;28;20458;-88
2021/06/21 07:54:27;;;;;;;3.93;2.20;;;22.30;99.90;;;;;;5020564;28;20200;-89
2021/06/21 07:56:52;;;;;;;3.40;1.73;;;22.40;99.90;;;;;;5003153;28;20188;-88
2021/06/21 07:59:19;;;;;;;2.70;1.37;;;22.60;99.90;;;;;;5020283;28;20454;-88
2021/06/21 08:01:45;;;;;;;4.63;1.47;;;22.50;99.90;;;;;;5003148;28;20275;-89
2021/06/21 08:04:12;;;;;;;1.90;1.43;;;22.60;99.90;;;;;;5003101;28;20578;-89
2021/06/21 08:06:38;;;;;;;7.13;1.70;;;22.60;99.90;;;;;;5004843;28;20518;-89
2021/06/21 08:09:04;;;;;;;4.20;1.67;;;22.50;99.90;;;;;;5002871;28;20486;-89
2021/06/21 08:11:30;;;;;;;5.13;1.53;;;22.80;99.90;;;;;;5000136;28;23183;-89
2021/06/21 08:13:56;;;;;;;3.17;1.50;;;23.10;99.90;;;;;;4995884;28;20463;-89
2021/06/21 08:16:28;;;;;;;1.97;1.43;;;23.10;99.90;;;;;;5019911;28;20571;-89
2021/06/21 08:19:23;;;;;;;4.60;1.77;;;23.20;99.90;;;;;;5004264;28;20427;-88
2021/06/21 08:21:49;;;;;;;3.43;2.40;;;23.30;99.90;;;;;;5002386;28;20447;-89
2021/06/21 08:24:14;;;;;;;3.47;1.60;;;23.40;99.90;;;;;;5018402;28;20494;-88
2021/06/21 08:26:54;;;;;;;2.53;2.33;;;23.20;99.90;;;;;;5002473;28;20234;-89
2021/06/21 08:31:58;;;;;;;3.20;2.17;;;23.20;99.90;;;;;;5003523;28;20447;-89
2021/06/21 08:34:23;;;;;;;2.23;1.37;;;23.30;99.90;;;;;;5003582;28;20811;-90
2021/06/21 08:36:52;;;;;;;4.57;1.30;;;23.30;99.90;;;;;;5003297;28;20608;-88
2021/06/21 08:39:18;;;;;;;6.60;1.60;;;23.20;99.90;;;;;;5000289;28;20215;-90
2021/06/21 08:41:43;;;;;;;4.97;1.40;;;23.40;99.90;;;;;;5003164;28;20466;-89
2021/06/21 08:44:10;;;;;;;2.13;1.20;;;23.50;99.80;;;;;;5000263;28;20896;-87
2021/06/21 08:46:42;;;;;;;2.90;1.60;;;23.40;99.80;;;;;;5004923;28;20228;-87
2021/06/21 08:49:13;;;;;;;2.20;1.37;;;23.40;99.80;;;;;;5000005;28;20490;-87
2021/06/21 08:51:54;;;;;;;;;;;;;;;;;;;;;
2021/06/21 08:54:38;;;;;;;6.00;2.43;;;23.60;98.90;;;;;;5003852;28;20461;-87
2021/06/21 08:57:08;;;;;;;3.73;1.70;;;23.70;98.60;;;;;;4999551;28;20819;-87
2021/06/21 08:59:36;;;;;;;3.57;1.40;;;23.80;98.30;;;;;;5016787;28;20456;-87
2021/06/21 09:02:30;;;;;;;2.50;1.80;;;23.60;98.20;;;;;;5018630;28;20447;-87
2021/06/21 09:05:08;;;;;;;3.63;2.13;;;23.60;98.10;;;;;;4999618;28;20444;-88
2021/06/21 09:10:32;;;;;;;1.90;1.43;;;23.80;97.60;;;;;;5003575;28;20864;-86
2021/06/21 09:13:21;;;;;;;4.10;1.80;;;23.90;97.80;;;;;;5002625;28;20976;-87
2021/06/21 09:15:56;;;;;;;2.43;1.33;;;24.00;97.90;;;;;;4993558;28;20452;-87
2021/06/21 09:18:26;;;;;;;2.37;1.47;;;24.00;97.40;;;;;;5001149;28;20534;-87
2021/06/21 09:21:43;;;;;;;3.27;1.87;;;24.00;98.10;;;;;;4998592;28;20440;-87
2021/06/21 09:24:24;;;;;;;3.07;1.23;;;24.00;97.80;;;;;;4975836;28;20472;-87
2021/06/21 09:26:54;;;;;;;3.63;1.53;;;24.00;97.00;;;;;;4998981;28;20476;-87
2021/06/21 09:29:42;;;;;;;2.77;1.50;;;24.00;97.50;;;;;;4999019;28;20787;-87
2021/06/21 09:32:16;;;;;;;2.03;1.60;;;24.20;96.90;;;;;;5015066;28;20460;-87
2021/06/21 09:34:43;;;;;;;3.33;1.50;;;24.20;96.60;;;;;;5000088;28;20541;-87
2021/06/21 09:37:17;;;;;;;1.63;1.50;;;24.10;96.30;;;;;;5015723;28;20536;-87
2021/06/21 09:39:45;;;;;;;2.57;1.50;;;24.30;96.90;;;;;;4993381;28;20943;-87
2021/06/21 09:42:23;;;;;;;3.37;1.70;;;24.50;96.30;;;;;;5008530;28;20443;-86
2021/06/21 09:44:49;;;;;;;2.27;1.50;;;24.60;95.90;;;;;;5015672;28;20474;-87
2021/06/21 09:47:30;;;;;;;2.80;2.00;;;24.80;95.70;;;;;;4996962;28;20483;-87
2021/06/21 09:50:20;;;;;;;2.43;1.53;;;24.60;95.30;;;;;;4995488;28;20455;-87
2021/06/21 09:52:55;;;;;;;2.50;1.50;;;24.50;96.30;;;;;;4996278;28;20448;-87
2021/06/21 09:55:27;;;;;;;3.87;1.40;;;24.50;95.60;;;;;;5017177;28;20443;-87
2021/06/21 09:58:05;;;;;;;3.40;1.77;;;24.70;96.30;;;;;;4999284;28;20460;-87
2021/06/21 10:00:32;;;;;;;2.50;1.77;;;24.90;95.00;;;;;;5001524;28;20794;-87
2021/06/21 10:03:11;;;;;;;4.83;2.00;;;25.00;95.10;;;;;;4988575;28;20459;-87
2021/06/21 10:05:43;;;;;;;1.93;1.33;;;25.20;95.50;;;;;;5012179;28;20534;-87
2021/06/21 10:08:10;;;;;;;2.17;1.70;;;25.30;94.80;;;;;;4995801;28;21056;-88
2021/06/21 10:10:40;;;;;;;4.53;1.43;;;25.50;94.60;;;;;;4994436;28;20916;-87
2021/06/21 10:13:07;;;;;;;1.63;1.53;;;25.70;94.70;;;;;;4995769;28;20428;-87
2021/06/21 10:15:35;;;;;;;3.90;1.50;;;25.70;93.60;;;;;;4994657;28;20444;-87
2021/06/21 10:18:02;;;;;;;3.50;1.70;;;25.70;94.80;;;;;;4995489;28;20451;-87
2021/06/21 10:20:28;;;;;;;2.80;1.50;;;25.80;94.20;;;;;;4991596;28;20451;-88
2021/06/21 10:22:55;;;;;;;2.57;1.90;;;26.00;93.60;;;;;;5008651;28;20498;-87
2021/06/21 10:25:21;;;;;;;3.80;1.50;;;25.80;94.10;;;;;;5010209;28;20520;-87
2021/06/21 10:27:47;;;;;;;3.60;1.67;;;25.80;94.20;;;;;;4996916;28;20731;-87
2021/06/21 10:30:18;;;;;;;2.83;1.47;;;25.70;93.20;;;;;;4991245;28;20246;-86
2021/06/21 10:32:46;;;;;;;1.43;1.33;;;25.80;93.70;;;;;;5007833;28;20447;-87
2021/06/21 10:35:13;;;;;;;3.30;1.90;;;25.60;94.00;;;;;;4993083;28;20458;-87
2021/06/21 10:37:52;;;;;;;2.60;1.50;;;25.70;93.90;;;;;;5010420;28;20443;-86
2021/06/21 10:40:18;;;;;;;2.23;1.53;;;25.60;94.50;;;;;;4976479;28;20723;-86
2021/06/21 10:42:44;;;;;;;2.90;1.73;;;25.50;94.40;;;;;;4994764;28;20435;-87
2021/06/21 10:45:26;;;;;;;2.60;1.70;;;25.70;94.10;;;;;;4993794;28;20199;-86
2021/06/21 10:48:15;;;;;;;1.80;1.50;;;26.10;93.30;;;;;;4992582;28;20236;-86
2021/06/21 10:50:52;;;;;;;2.40;1.70;;;26.30;92.90;;;;;;4991113;28;20851;-86
2021/06/21 10:53:18;;;;;;;2.20;1.87;;;26.00;92.70;;;;;;4991623;28;20473;-87
2021/06/21 10:55:49;;;;;;;3.23;1.67;;;26.30;93.40;;;;;;4996941;28;20440;-86
2021/06/21 10:58:21;;;;;;;1.40;1.30;;;26.00;93.10;;;;;;4994504;28;20901;-87
2021/06/21 11:00:52;;;;;;;1.70;1.50;;;26.10;93.60;;;;;;4993098;28;20443;-86
2021/06/21 11:03:29;;;;;;;1.93;1.50;;;26.50;92.50;;;;;;4996159;28;20542;-87
2021/06/21 11:06:02;;;;;;;2.10;1.40;;;26.90;92.60;;;;;;4995797;28;20522;-87
2021/06/21 11:08:39;;;;;;;2.27;1.40;;;27.30;91.60;;;;;;4995045;28;20628;-87
2021/06/21 11:11:37;;;;;;;2.60;1.40;;;26.40;91.50;;;;;;4994385;28;20444;-87
2021/06/21 11:14:21;;;;;;;3.60;1.90;;;26.30;94.60;;;;;;4992603;28;21810;-87
2021/06/21 11:17:14;;;;;;;1.93;1.83;;;26.80;92.60;;;;;;4994702;28;20483;-87
2021/06/21 11:19:52;;;;;;;2.77;1.83;;;27.40;92.20;;;;;;4991261;28;20459;-87
2021/06/21 11:25:48;;;;;;;4.17;1.50;;;27.30;90.40;;;;;;4939991;28;20472;-87
2021/06/21 11:28:36;;;;;;;3.37;1.70;;;27.80;90.90;;;;;;4995279;28;20972;-87
2021/06/21 11:31:25;;;;;;;3.23;1.73;;;28.00;87.80;;;;;;4991941;28;20890;-86
2021/06/21 11:34:02;;;;;;;2.80;1.70;;;27.80;87.30;;;;;;4992431;28;20446;-87
2021/06/21 11:36:45;;;;;;;2.33;1.50;;;27.70;84.90;;;;;;5011756;28;20462;-87
2021/06/21 11:39:30;;;;;;;1.50;1.40;;;27.70;90.00;;;;;;5010317;28;20891;-87
2021/06/21 11:42:02;;;;;;;1.70;1.60;;;27.40;90.30;;;;;;4993772;28;22593;-86
2021/06/21 11:44:40;;;;;;;3.97;1.70;;;27.30;88.90;;;;;;4994995;28;20674;-87
2021/06/21 11:47:15;;;;;;;2.90;1.60;;;27.50;87.30;;;;;;5001629;28;20486;-87
2021/06/21 11:49:44;;;;;;;2.87;1.60;;;27.20;88.30;;;;;;5008835;28;20478;-87
2021/06/21 11:52:14;;;;;;;3.87;1.60;;;26.90;90.50;;;;;;4994827;28;20462;-86
2021/06/21 11:54:41;;;;;;;3.70;1.40;;;27.30;90.00;;;;;;4992491;28;20447;-87
2021/06/21 11:57:09;;;;;;;2.10;1.40;;;27.90;90.50;;;;;;4988510;28;20502;-87
2021/06/21 11:59:47;;;;;;;4.97;1.73;;;28.20;86.30;;;;;;4991682;28;20440;-88
2021/06/21 12:02:14;;;;;;;4.43;1.90;;;28.40;85.60;;;;;;5010351;28;20454;-87
2021/06/21 12:04:41;;;;;;;3.13;1.40;;;28.80;84.80;;;;;;4990351;28;20890;-86
2021/06/21 12:07:08;;;;;;;2.73;1.70;;;28.90;84.40;;;;;;4987598;28;20488;-86
2021/06/21 12:09:52;;;;;;;1.30;1.20;;;29.00;82.30;;;;;;4992723;28;20451;-87
2021/06/21 12:12:38;;;;;;;3.53;1.30;;;29.40;84.80;;;;;;4992697;28;20462;-87
2021/06/21 12:15:09;;;;;;;1.77;1.60;;;29.30;80.50;;;;;;4993004;28;20474;-87
2021/06/21 12:17:34;;;;;;;2.90;1.70;;;28.10;82.90;;;;;;5011508;28;20961;-87
2021/06/21 12:20:05;;;;;;;1.60;1.50;;;27.90;84.50;;;;;;4993165;28;20444;-88
2021/06/21 12:22:31;;;;;;;1.50;1.40;;;28.10;82.20;;;;;;4993516;28;20447;-87
2021/06/21 12:24:58;;;;;;;1.67;1.57;;;28.60;81.30;;;;;;4994810;28;20819;-88
2021/06/21 12:27:23;;;;;;;4.40;1.80;;;28.70;79.40;;;;;;4998582;28;20503;-87
2021/06/21 12:29:49;;;;;;;2.87;1.67;;;29.00;80.50;;;;;;5013918;28;21930;-87
2021/06/21 12:32:16;;;;;;;2.50;1.40;;;29.20;78.40;;;;;;4997127;28;20189;-88
2021/06/21 12:34:57;;;;;;;1.97;1.50;;;29.40;77.60;;;;;;5012974;28;20788;-88
2021/06/21 12:37:25;;;;;;;3.87;1.60;;;29.70;82.10;;;;;;5012422;28;20494;-88
2021/06/21 12:39:57;;;;;;;1.63;1.53;;;29.90;80.20;;;;;;4997500;28;20498;-88
2021/06/21 12:42:26;;;;;;;1.83;1.57;;;30.40;82.20;;;;;;4997587;28;20451;-88
2021/06/21 12:44:53;;;;;;;5.27;2.07;;;30.60;73.70;;;;;;4996712;28;20452;-88
2021/06/21 12:47:20;;;;;;;1.83;1.40;;;30.00;77.20;;;;;;5012400;28;20483;-88
2021/06/21 12:49:47;;;;;;;2.20;1.80;;;29.60;76.00;;;;;;4990590;28;20456;-88
2021/06/21 12:52:14;;;;;;;1.90;1.50;;;29.90;74.90;;;;;;5010448;28;20444;-88
2021/06/21 12:54:40;;;;;;;2.23;1.73;;;29.80;76.90;;;;;;4997330;28;20815;-88
2021/06/21 12:57:06;;;;;;;2.40;1.50;;;30.60;73.20;;;;;;5013158;28;21172;-88
2021/06/21 12:59:33;;;;;;;2.40;1.40;;;30.40;73.00;;;;;;4995802;28;20977;-88
2021/06/21 13:02:05;;;;;;;2.27;1.33;;;30.30;76.50;;;;;;4989145;28;20197;-88
2021/06/21 13:04:31;;;;;;;2.50;1.87;;;30.40;74.10;;;;;;4996801;28;20633;-88
2021/06/21 13:07:11;;;;;;;3.13;1.20;;;30.60;73.60;;;;;;4991046;28;20484;-88
2021/06/21 13:09:49;;;;;;;2.50;1.90;;;30.70;70.70;;;;;;4993081;28;20443;-89
2021/06/21 13:12:22;;;;;;;1.60;1.50;;;29.70;72.10;;;;;;5008218;28;20467;-87
2021/06/21 13:14:49;;;;;;;3.27;1.70;;;29.00;77.40;;;;;;4986897;28;20443;-88
2021/06/21 13:17:39;;;;;;;1.63;1.47;;;29.30;73.80;;;;;;4987743;28;20529;-88
2021/06/21 13:20:10;;;;;;;2.30;1.60;;;30.20;71.40;;;;;;4992954;28;20440;-88
2021/06/21 13:22:47;;;;;;;1.90;1.40;;;30.90;76.20;;;;;;4988985;28;20501;-88
2021/06/21 13:25:30;;;;;;;1.60;1.50;;;31.10;74.90;;;;;;4990033;28;20448;-88